Etusivu
METAR-TAF:

METAR-TAF

Lentoasemat :

Uppsala, Ruotsi

Leveyspiiri: 59-53N, Pituuspiiri: 017-36E, korkeus merenpinnasta: 21 m

METAR: puuttuu

Aika: 15:39 (13:39 UTC)

Sääennuste

Tämä raportti tehtiin 1 tunti ja 24 minuuttia sitten, kello 12.15 UTC
Ennuste voimassa 24. päivästä klo 12 UTC - 24. päivään klo 14 UTC
Tuuli 13 kn pohjoisesta
Näkyvyys 10 km tai enemmän
ei pilviä alle 1500 m:ssä eikä cumulonimbus-pilviä

TAF: ESCM 241215Z 2412/2414 35013KT CAVOK RMK MIL

Säähavainnot ja -ennusteet yli 4000 lentoasemalta (METAR- ja TAF-raportit).

Käytössä olevat sääasemat on merkitty karttaan keltaisilla ja punaisilla pisteillä.

Aseta hiiri pisteen päälle nähdäksesi sääaseman nimen.

Klikkaa sitten nähdäksesi säähavainnot ja -ennusteet.

Kartan vaihtaminen: klikkaa mustalla rastilla varustettuja vihreitä pisteitä, niin voit zoomata sisään; viivalla varustettua vihreää pistettä, niin voit zoomata ulos tai vihreitä nuolia, niin pääset viereisille kartoille.


METAR-TAF: